sensor_id;sensor_type;location;lat;lon;timestamp;temperature;humidity
27004;DHT22;14546;47.590;19.022;2023-07-29T00:04:30;19.30;99.90
27004;DHT22;14546;47.590;19.022;2023-07-29T00:06:55;18.90;99.90
27004;DHT22;14546;47.590;19.022;2023-07-29T00:09:21;18.90;99.90
27004;DHT22;14546;47.590;19.022;2023-07-29T00:11:46;18.90;99.90
27004;DHT22;14546;47.590;19.022;2023-07-29T00:14:12;18.80;99.90
27004;DHT22;14546;47.590;19.022;2023-07-29T00:16:38;18.80;99.90
27004;DHT22;14546;47.590;19.022;2023-07-29T00:19:03;18.80;99.90
27004;DHT22;14546;47.590;19.022;2023-07-29T00:21:29;18.80;99.90
27004;DHT22;14546;47.590;19.022;2023-07-29T00:23:55;18.80;99.90
27004;DHT22;14546;47.590;19.022;2023-07-29T00:26:23;18.70;99.90
27004;DHT22;14546;47.590;19.022;2023-07-29T00:28:51;18.70;99.90
27004;DHT22;14546;47.590;19.022;2023-07-29T00:31:17;18.70;99.90
27004;DHT22;14546;47.590;19.022;2023-07-29T00:33:43;18.70;99.90
27004;DHT22;14546;47.590;19.022;2023-07-29T00:36:08;18.60;99.90
27004;DHT22;14546;47.590;19.022;2023-07-29T00:38:34;18.60;99.90
27004;DHT22;14546;47.590;19.022;2023-07-29T00:41:02;18.60;99.90
27004;DHT22;14546;47.590;19.022;2023-07-29T00:43:27;18.50;99.90
27004;DHT22;14546;47.590;19.022;2023-07-29T00:45:53;18.50;99.90
27004;DHT22;14546;47.590;19.022;2023-07-29T00:48:19;18.50;99.90
27004;DHT22;14546;47.590;19.022;2023-07-29T00:50:45;18.40;99.90
27004;DHT22;14546;47.590;19.022;2023-07-29T00:53:10;18.40;99.90
27004;DHT22;14546;47.590;19.022;2023-07-29T00:55:37;18.40;99.90
27004;DHT22;14546;47.590;19.022;2023-07-29T00:58:03;18.30;99.90
27004;DHT22;14546;47.590;19.022;2023-07-29T01:00:28;18.30;99.90
27004;DHT22;14546;47.590;19.022;2023-07-29T01:02:54;18.30;99.90
27004;DHT22;14546;47.590;19.022;2023-07-29T01:05:20;18.30;99.90
27004;DHT22;14546;47.590;19.022;2023-07-29T01:07:59;18.20;99.90
27004;DHT22;14546;47.590;19.022;2023-07-29T01:13:33;18.20;99.90
27004;DHT22;14546;47.590;19.022;2023-07-29T01:16:23;18.10;99.90
27004;DHT22;14546;47.590;19.022;2023-07-29T01:18:52;18.10;99.90
27004;DHT22;14546;47.590;19.022;2023-07-29T01:21:19;18.10;99.90
27004;DHT22;14546;47.590;19.022;2023-07-29T01:23:46;18.10;99.90
27004;DHT22;14546;47.590;19.022;2023-07-29T01:26:12;18.10;99.90
27004;DHT22;14546;47.590;19.022;2023-07-29T01:28:37;18.10;99.90
27004;DHT22;14546;47.590;19.022;2023-07-29T01:31:13;18.10;99.90
27004;DHT22;14546;47.590;19.022;2023-07-29T01:33:57;18.10;99.90
27004;DHT22;14546;47.590;19.022;2023-07-29T01:36:28;18.00;99.90
27004;DHT22;14546;47.590;19.022;2023-07-29T01:38:54;18.00;99.90
27004;DHT22;14546;47.590;19.022;2023-07-29T01:41:22;18.00;99.90
27004;DHT22;14546;47.590;19.022;2023-07-29T01:43:48;18.00;99.90
27004;DHT22;14546;47.590;19.022;2023-07-29T01:46:15;17.90;99.90
27004;DHT22;14546;47.590;19.022;2023-07-29T01:48:41;17.90;99.90
27004;DHT22;14546;47.590;19.022;2023-07-29T01:51:07;18.00;99.90
27004;DHT22;14546;47.590;19.022;2023-07-29T01:53:33;18.00;99.90
27004;DHT22;14546;47.590;19.022;2023-07-29T01:55:58;18.00;99.90
27004;DHT22;14546;47.590;19.022;2023-07-29T01:58:24;17.90;99.90
27004;DHT22;14546;47.590;19.022;2023-07-29T02:00:50;17.90;99.90
27004;DHT22;14546;47.590;19.022;2023-07-29T02:03:16;17.90;99.90
27004;DHT22;14546;47.590;19.022;2023-07-29T02:05:42;17.90;99.90
27004;DHT22;14546;47.590;19.022;2023-07-29T02:08:09;17.90;99.90
27004;DHT22;14546;47.590;19.022;2023-07-29T02:10:35;17.90;99.90
27004;DHT22;14546;47.590;19.022;2023-07-29T02:13:01;17.90;99.90
27004;DHT22;14546;47.590;19.022;2023-07-29T02:15:26;17.80;99.90
27004;DHT22;14546;47.590;19.022;2023-07-29T02:17:53;17.80;99.90
27004;DHT22;14546;47.590;19.022;2023-07-29T02:20:18;17.80;99.90
27004;DHT22;14546;47.590;19.022;2023-07-29T02:22:44;17.80;99.90
27004;DHT22;14546;47.590;19.022;2023-07-29T02:25:10;17.80;99.90
27004;DHT22;14546;47.590;19.022;2023-07-29T02:27:35;17.80;99.90
27004;DHT22;14546;47.590;19.022;2023-07-29T02:30:02;17.80;99.90
27004;DHT22;14546;47.590;19.022;2023-07-29T02:32:28;17.80;99.90
27004;DHT22;14546;47.590;19.022;2023-07-29T02:34:53;17.80;99.90
27004;DHT22;14546;47.590;19.022;2023-07-29T02:37:19;17.80;99.90
27004;DHT22;14546;47.590;19.022;2023-07-29T02:39:45;17.70;99.90
27004;DHT22;14546;47.590;19.022;2023-07-29T02:42:11;17.70;99.90
27004;DHT22;14546;47.590;19.022;2023-07-29T02:44:37;17.70;99.90
27004;DHT22;14546;47.590;19.022;2023-07-29T02:47:03;17.70;99.90
27004;DHT22;14546;47.590;19.022;2023-07-29T02:49:28;17.70;99.90
27004;DHT22;14546;47.590;19.022;2023-07-29T02:51:54;17.70;99.90
27004;DHT22;14546;47.590;19.022;2023-07-29T02:54:20;17.70;99.90
27004;DHT22;14546;47.590;19.022;2023-07-29T02:56:45;17.70;99.90
27004;DHT22;14546;47.590;19.022;2023-07-29T02:59:11;17.70;99.90
27004;DHT22;14546;47.590;19.022;2023-07-29T03:01:37;17.60;99.90
27004;DHT22;14546;47.590;19.022;2023-07-29T03:04:02;17.60;99.90
27004;DHT22;14546;47.590;19.022;2023-07-29T03:06:28;17.60;99.90
27004;DHT22;14546;47.590;19.022;2023-07-29T03:08:54;17.60;99.90
27004;DHT22;14546;47.590;19.022;2023-07-29T03:11:19;17.60;99.90
27004;DHT22;14546;47.590;19.022;2023-07-29T03:13:45;17.60;99.90
27004;DHT22;14546;47.590;19.022;2023-07-29T03:16:16;17.60;99.90
27004;DHT22;14546;47.590;19.022;2023-07-29T03:18:42;17.60;99.90
27004;DHT22;14546;47.590;19.022;2023-07-29T03:21:10;17.60;99.90
27004;DHT22;14546;47.590;19.022;2023-07-29T03:23:36;17.60;99.90
27004;DHT22;14546;47.590;19.022;2023-07-29T03:26:03;17.60;99.90
27004;DHT22;14546;47.590;19.022;2023-07-29T03:28:37;17.50;99.90
27004;DHT22;14546;47.590;19.022;2023-07-29T03:31:03;17.50;99.90
27004;DHT22;14546;47.590;19.022;2023-07-29T03:33:29;17.50;99.90
27004;DHT22;14546;47.590;19.022;2023-07-29T03:35:55;17.50;99.90
27004;DHT22;14546;47.590;19.022;2023-07-29T03:38:20;17.50;99.90
27004;DHT22;14546;47.590;19.022;2023-07-29T03:40:46;17.50;99.90
27004;DHT22;14546;47.590;19.022;2023-07-29T03:43:12;17.50;99.90
27004;DHT22;14546;47.590;19.022;2023-07-29T03:45:38;17.50;99.90
27004;DHT22;14546;47.590;19.022;2023-07-29T03:48:04;17.50;99.90
27004;DHT22;14546;47.590;19.022;2023-07-29T03:50:30;17.50;99.90
27004;DHT22;14546;47.590;19.022;2023-07-29T03:52:56;17.50;99.90
27004;DHT22;14546;47.590;19.022;2023-07-29T03:55:22;17.50;99.90
27004;DHT22;14546;47.590;19.022;2023-07-29T03:57:48;17.50;99.90
27004;DHT22;14546;47.590;19.022;2023-07-29T04:00:14;17.60;99.90
27004;DHT22;14546;47.590;19.022;2023-07-29T04:02:41;17.60;99.90
27004;DHT22;14546;47.590;19.022;2023-07-29T04:05:07;17.60;99.90
27004;DHT22;14546;47.590;19.022;2023-07-29T04:07:36;17.60;99.90
27004;DHT22;14546;47.590;19.022;2023-07-29T04:10:02;17.60;99.90
27004;DHT22;14546;47.590;19.022;2023-07-29T04:12:28;17.60;99.90
27004;DHT22;14546;47.590;19.022;2023-07-29T04:14:54;17.70;99.90
27004;DHT22;14546;47.590;19.022;2023-07-29T04:17:19;17.70;99.90
27004;DHT22;14546;47.590;19.022;2023-07-29T04:19:45;17.80;99.90
27004;DHT22;14546;47.590;19.022;2023-07-29T04:22:11;17.80;99.90
27004;DHT22;14546;47.590;19.022;2023-07-29T04:24:37;17.90;99.90
27004;DHT22;14546;47.590;19.022;2023-07-29T04:27:03;18.00;99.90
27004;DHT22;14546;47.590;19.022;2023-07-29T04:29:29;18.00;99.90
27004;DHT22;14546;47.590;19.022;2023-07-29T04:31:55;18.10;99.90
27004;DHT22;14546;47.590;19.022;2023-07-29T22:07:50;18.20;99.90
27004;DHT22;14546;47.590;19.022;2023-07-29T22:10:16;21.20;80.40
27004;DHT22;14546;47.590;19.022;2023-07-29T22:12:42;20.70;80.30
27004;DHT22;14546;47.590;19.022;2023-07-29T22:15:09;20.60;80.30
27004;DHT22;14546;47.590;19.022;2023-07-29T22:17:35;20.60;80.50
27004;DHT22;14546;47.590;19.022;2023-07-29T22:20:01;20.60;80.60
27004;DHT22;14546;47.590;19.022;2023-07-29T22:22:27;20.60;80.80
27004;DHT22;14546;47.590;19.022;2023-07-29T22:24:53;20.60;81.00
27004;DHT22;14546;47.590;19.022;2023-07-29T22:27:19;20.60;81.00
27004;DHT22;14546;47.590;19.022;2023-07-29T22:29:44;20.60;81.10
27004;DHT22;14546;47.590;19.022;2023-07-29T22:32:10;20.50;81.20
27004;DHT22;14546;47.590;19.022;2023-07-29T22:34:36;20.50;81.20
27004;DHT22;14546;47.590;19.022;2023-07-29T22:37:01;20.50;81.30
27004;DHT22;14546;47.590;19.022;2023-07-29T22:39:27;20.50;81.50
27004;DHT22;14546;47.590;19.022;2023-07-29T22:41:53;20.50;81.40
27004;DHT22;14546;47.590;19.022;2023-07-29T22:44:18;20.50;81.20
27004;DHT22;14546;47.590;19.022;2023-07-29T22:46:47;20.50;81.20
27004;DHT22;14546;47.590;19.022;2023-07-29T22:49:13;20.50;81.20
27004;DHT22;14546;47.590;19.022;2023-07-29T22:51:38;20.60;81.10
27004;DHT22;14546;47.590;19.022;2023-07-29T22:54:04;20.60;81.20
27004;DHT22;14546;47.590;19.022;2023-07-29T22:56:30;20.50;81.20
27004;DHT22;14546;47.590;19.022;2023-07-29T22:58:55;20.50;81.20
27004;DHT22;14546;47.590;19.022;2023-07-29T23:01:21;20.50;81.30
27004;DHT22;14546;47.590;19.022;2023-07-29T23:03:47;20.50;81.50
27004;DHT22;14546;47.590;19.022;2023-07-29T23:06:12;20.50;81.70
27004;DHT22;14546;47.590;19.022;2023-07-29T23:08:38;20.50;81.80
27004;DHT22;14546;47.590;19.022;2023-07-29T23:11:04;20.50;81.90
27004;DHT22;14546;47.590;19.022;2023-07-29T23:13:30;20.50;81.80
27004;DHT22;14546;47.590;19.022;2023-07-29T23:16:00;20.50;81.60
27004;DHT22;14546;47.590;19.022;2023-07-29T23:18:26;20.50;81.60
27004;DHT22;14546;47.590;19.022;2023-07-29T23:20:52;20.50;81.60
27004;DHT22;14546;47.590;19.022;2023-07-29T23:23:18;20.50;82.30
27004;DHT22;14546;47.590;19.022;2023-07-29T23:25:44;20.50;81.60
27004;DHT22;14546;47.590;19.022;2023-07-29T23:28:10;20.60;81.80
27004;DHT22;14546;47.590;19.022;2023-07-29T23:30:35;20.50;81.80
27004;DHT22;14546;47.590;19.022;2023-07-29T23:33:03;20.50;81.90
27004;DHT22;14546;47.590;19.022;2023-07-29T23:35:29;20.50;81.90
27004;DHT22;14546;47.590;19.022;2023-07-29T23:37:55;20.50;81.90
27004;DHT22;14546;47.590;19.022;2023-07-29T23:40:21;20.50;82.00
27004;DHT22;14546;47.590;19.022;2023-07-29T23:42:46;20.50;82.10
27004;DHT22;14546;47.590;19.022;2023-07-29T23:45:12;20.50;82.20
27004;DHT22;14546;47.590;19.022;2023-07-29T23:47:38;20.50;82.40
27004;DHT22;14546;47.590;19.022;2023-07-29T23:50:04;20.50;82.50
27004;DHT22;14546;47.590;19.022;2023-07-29T23:52:30;20.40;82.60
27004;DHT22;14546;47.590;19.022;2023-07-29T23:57:21;20.50;90.40
27004;DHT22;14546;47.590;19.022;2023-07-29T23:59:47;20.40;83.10
